Nearby METAR Reports

 

KT74 - Taylor Muni, Texas, USA
Distance from station: W 2mi, 3km
Updated: Thu, 22-Feb-2024 9:15pm CST
Clear
Clear
 Wind from NW
Wind: NW 10 mph , 17 km/h
Temperature: 66°F , 19°C
Dew Point: 36°F , 2°C
Humidity: 32%
Barometer: 29.90 inHg , 1012.5 hPa
Clouds: Clear
Visibility: 10 miles , 16 km
2024/02/23 03:15 KT74 230315Z AUTO 32009KT 10SM CLR 19/02 A2990 RMK AO2 T01860017
KEDC - Austin Exec, Texas, USA
Distance from station: SW 16mi, 25km
Updated: Thu, 22-Feb-2024 9:15pm CST
Clear
Clear
 Wind from NNW
Wind: NNW 13 mph , 20 km/h
Temperature: 70°F , 21°C
Dew Point: 32°F , 0°C
Humidity: 25%
Barometer: 29.88 inHg , 1011.9 hPa
Clouds: Clear
Visibility: 9 miles , 14 km
2024/02/23 03:15 KEDC 230315Z AUTO 34011KT 9SM CLR 21/M00 A2988 RMK AO2
 
KGTU - Georgetown, Texas, USA
Distance from station: WNW 17mi, 28km
Updated: Thu, 22-Feb-2024 8:56pm CST
Clear
Clear
 Wind from NNW
Wind: NNW 10 mph , 17 km/h
Temperature: 68°F , 20°C
Dew Point: 36°F , 2°C
Humidity: 30%
Barometer: 29.92 inHg , 1013.2 hPa
Clouds: Clear
Visibility: 10 miles , 16 km
2024/02/23 02:56 KGTU 230256Z 34009KT 10SM CLR 20/02 A2992 RMK AO2 SLP126 T02000017 53030
KATT - Austin/Mabry, Texas, USA
Distance from station: SW 28mi, 45km
Updated: Thu, 22-Feb-2024 8:51pm CST
Clear
Clear
 Wind from N
Wind: N 7 mph , 11 km/h
Temperature: 73°F , 23°C
Dew Point: 28°F , -2°C
Humidity: 19%
Barometer: 29.89 inHg , 1012.2 hPa
Clouds: Clear
Visibility: 10 miles , 16 km
2024/02/23 02:51 KATT 230251Z AUTO 35006KT 10SM CLR 23/M02 A2989 RMK AO2 SLP112 T02331022 53026
 
KAUS - Austin, Texas, USA
Distance from station: SSW 32mi, 51km
Updated: Thu, 22-Feb-2024 8:53pm CST
Few Clouds
Few Clouds
 Wind from NNW
Wind: NNW 9 mph , 15 km/h
Temperature: 68°F , 20°C
Dew Point: 34°F , 1°C
Humidity: 28%
Barometer: 29.87 inHg , 1011.5 hPa
Clouds: Few Clouds
Visibility: 10 miles , 16 km
Cloud details: Few Clouds 20000 ft
2024/02/23 02:53 KAUS 230253Z 33008KT 10SM FEW200 20/01 A2987 RMK AO2 SLP108 T02000011 53027
KRYW - Lago Vista, Texas, USA
Distance from station: W 33mi, 54km
Updated: Thu, 22-Feb-2024 9:15pm CST
Clear
Clear
 Wind from N
Wind: N 12 mph , 19 km/h, Gust: 21 mph , 33 km/h
Temperature: 70°F , 21°C
Dew Point: 32°F , 0°C
Humidity: 25%
Barometer: 29.93 inHg , 1013.5 hPa
Clouds: Clear
Visibility: 10 miles , 16 km
2024/02/23 03:15 KRYW 230315Z AUTO 35010G18KT 10SM CLR 21/00 A2993 RMK AO2 T02070000
 
KILE - Killeen Muni, Texas, USA
Distance from station: NNW 37mi, 59km
Updated: Thu, 22-Feb-2024 8:56pm CST
Clear
Clear
 Wind from NNW
Wind: NNW 9 mph , 15 km/h
Temperature: 66°F , 19°C
Dew Point: 39°F , 4°C
Humidity: 37%
Barometer: 29.91 inHg , 1012.9 hPa
Clouds: Clear
Visibility: 10 miles , 16 km
2024/02/23 02:56 KILE 230256Z AUTO 34008KT 10SM CLR 19/04 A2991 RMK AO2 SLP121 T01940039 51033
KTPL - Temple/Miller, Texas, USA
Distance from station: N 38mi, 61km
Updated: Thu, 22-Feb-2024 8:51pm CST
Clear
Clear
 Wind from NNW
Wind: NNW 14 mph , 22 km/h, Gust: 21 mph , 33 km/h
Temperature: 66°F , 19°C
Dew Point: 39°F , 4°C
Humidity: 37%
Barometer: 29.90 inHg , 1012.5 hPa
Clouds: Clear
Visibility: 10 miles , 16 km
2024/02/23 02:51 KTPL 230251Z AUTO 33012G18KT 10SM CLR 19/04 A2990 RMK AO2 SLP116 T01940044 53033
 
KGYB - Giddings-Lee, Texas, USA
Distance from station: SE 39mi, 62km
Updated: Thu, 22-Feb-2024 9:15pm CST
Clear
Clear
 Wind from NNW
Wind: NNW 9 mph , 15 km/h
Temperature: 70°F , 21°C
Dew Point: 32°F , 0°C
Humidity: 25%
Barometer: 29.87 inHg , 1011.5 hPa
Clouds: Clear
Visibility: 10 miles , 16 km
2024/02/23 03:15 KGYB 230315Z AUTO 34008KT 10SM CLR 21/00 A2987 RMK AO2 T02140003
KHLR - Ft Hood/Killeen, Texas, USA
Distance from station: NNW 42mi, 67km
Updated: Thu, 22-Feb-2024 8:55pm CST
Clear
Clear
 Wind from NNW
Wind: NNW 10 mph , 17 km/h
Temperature: 66°F , 19°C
Dew Point: 39°F , 4°C
Humidity: 37%
Barometer: 29.91 inHg , 1012.9 hPa
Clouds: Clear
Visibility: 10 miles , 16 km
2024/02/23 02:55 KHLR 230255Z AUTO 34009KT 10SM CLR 19/04 A2991 RMK AO2 SLP122 T01920038 52033